sensor_id;sensor_type;location;lat;lon;timestamp;pressure;altitude;pressure_sealevel;temperature;humidity
43480;BME280;29067;35.492;-97.520;2023-10-08T00:01:36;97993.96;;;18.07;25.33
43480;BME280;29067;35.492;-97.520;2023-10-08T00:04:05;97993.18;;;18.04;25.92
43480;BME280;29067;35.492;-97.520;2023-10-08T00:06:33;97989.07;;;17.06;25.76
43480;BME280;29067;35.492;-97.520;2023-10-08T00:09:01;97989.68;;;18.08;27.17
43480;BME280;29067;35.492;-97.520;2023-10-08T00:11:30;97992.07;;;17.81;27.86
43480;BME280;29067;35.492;-97.520;2023-10-08T00:13:57;97997.22;;;16.60;28.46
43480;BME280;29067;35.492;-97.520;2023-10-08T00:16:25;97998.42;;;17.75;28.42
43480;BME280;29067;35.492;-97.520;2023-10-08T00:18:53;97999.67;;;17.29;28.00
43480;BME280;29067;35.492;-97.520;2023-10-08T00:21:21;98001.21;;;17.29;29.33
43480;BME280;29067;35.492;-97.520;2023-10-08T00:23:50;97999.68;;;16.10;30.21
43480;BME280;29067;35.492;-97.520;2023-10-08T00:26:18;98000.28;;;16.02;31.24
43480;BME280;29067;35.492;-97.520;2023-10-08T00:28:46;98005.57;;;14.76;32.85
43480;BME280;29067;35.492;-97.520;2023-10-08T00:31:14;98006.50;;;14.90;32.93
43480;BME280;29067;35.492;-97.520;2023-10-08T00:33:42;97998.56;;;16.00;32.47
43480;BME280;29067;35.492;-97.520;2023-10-08T00:36:10;97998.77;;;16.24;32.39
43480;BME280;29067;35.492;-97.520;2023-10-08T00:38:38;97997.87;;;16.31;31.84
43480;BME280;29067;35.492;-97.520;2023-10-08T00:41:06;97997.45;;;16.69;31.88
43480;BME280;29067;35.492;-97.520;2023-10-08T00:43:35;98000.61;;;15.69;31.90
43480;BME280;29067;35.492;-97.520;2023-10-08T00:46:04;98000.96;;;16.03;32.67
43480;BME280;29067;35.492;-97.520;2023-10-08T00:48:32;98002.95;;;16.15;32.55
43480;BME280;29067;35.492;-97.520;2023-10-08T00:51:01;98002.59;;;16.38;31.20
43480;BME280;29067;35.492;-97.520;2023-10-08T00:53:29;98007.16;;;15.87;31.72
43480;BME280;29067;35.492;-97.520;2023-10-08T00:55:58;98012.65;;;13.79;33.28
43480;BME280;29067;35.492;-97.520;2023-10-08T00:58:26;98011.46;;;14.07;32.84
43480;BME280;29067;35.492;-97.520;2023-10-08T01:00:54;98013.62;;;13.41;33.81
43480;BME280;29067;35.492;-97.520;2023-10-08T01:03:22;98007.25;;;14.60;33.84
43480;BME280;29067;35.492;-97.520;2023-10-08T01:05:49;98003.05;;;15.33;32.32
43480;BME280;29067;35.492;-97.520;2023-10-08T01:08:18;98002.47;;;14.62;33.48
43480;BME280;29067;35.492;-97.520;2023-10-08T01:10:46;98005.13;;;13.51;34.19
43480;BME280;29067;35.492;-97.520;2023-10-08T01:13:14;98011.27;;;12.47;35.72
43480;BME280;29067;35.492;-97.520;2023-10-08T01:15:42;98016.37;;;11.84;35.70
43480;BME280;29067;35.492;-97.520;2023-10-08T01:18:10;98014.22;;;13.09;36.70
43480;BME280;29067;35.492;-97.520;2023-10-08T01:20:37;98014.85;;;12.17;37.44
43480;BME280;29067;35.492;-97.520;2023-10-08T01:23:06;98014.72;;;12.76;37.86
43480;BME280;29067;35.492;-97.520;2023-10-08T01:25:35;98013.87;;;13.01;37.54
43480;BME280;29067;35.492;-97.520;2023-10-08T01:28:05;98024.65;;;11.55;37.87
43480;BME280;29067;35.492;-97.520;2023-10-08T01:30:32;98023.33;;;13.00;37.82
43480;BME280;29067;35.492;-97.520;2023-10-08T01:33:01;98023.63;;;13.60;36.32
43480;BME280;29067;35.492;-97.520;2023-10-08T01:35:29;98023.10;;;13.55;36.08
43480;BME280;29067;35.492;-97.520;2023-10-08T01:37:57;98023.71;;;13.85;35.61
43480;BME280;29067;35.492;-97.520;2023-10-08T01:40:24;98020.19;;;14.10;35.31
43480;BME280;29067;35.492;-97.520;2023-10-08T01:42:52;98022.03;;;14.23;35.78
43480;BME280;29067;35.492;-97.520;2023-10-08T01:45:21;98028.53;;;12.45;36.67
43480;BME280;29067;35.492;-97.520;2023-10-08T01:47:48;98033.56;;;11.43;38.26
43480;BME280;29067;35.492;-97.520;2023-10-08T01:50:16;98036.46;;;12.68;38.59
43480;BME280;29067;35.492;-97.520;2023-10-08T01:52:44;98035.57;;;13.11;37.82
43480;BME280;29067;35.492;-97.520;2023-10-08T01:55:12;98032.59;;;13.86;36.67
43480;BME280;29067;35.492;-97.520;2023-10-08T01:57:40;98031.82;;;14.00;34.40
43480;BME280;29067;35.492;-97.520;2023-10-08T02:00:09;98038.86;;;12.60;37.03
43480;BME280;29067;35.492;-97.520;2023-10-08T02:02:37;98037.20;;;14.05;34.67
43480;BME280;29067;35.492;-97.520;2023-10-08T02:05:05;98042.25;;;12.37;36.63
43480;BME280;29067;35.492;-97.520;2023-10-08T02:07:33;98043.63;;;13.86;35.58
43480;BME280;29067;35.492;-97.520;2023-10-08T02:10:02;98047.46;;;11.39;39.03
43480;BME280;29067;35.492;-97.520;2023-10-08T02:12:30;98046.43;;;11.82;38.70
43480;BME280;29067;35.492;-97.520;2023-10-08T02:14:59;98047.06;;;12.51;37.63
43480;BME280;29067;35.492;-97.520;2023-10-08T02:17:26;98049.12;;;13.02;37.47
43480;BME280;29067;35.492;-97.520;2023-10-08T02:19:54;98050.44;;;11.12;40.19
43480;BME280;29067;35.492;-97.520;2023-10-08T02:22:22;98050.22;;;13.25;38.09
43480;BME280;29067;35.492;-97.520;2023-10-08T02:24:50;98050.56;;;11.95;38.78
43480;BME280;29067;35.492;-97.520;2023-10-08T02:27:18;98051.69;;;13.17;37.91
43480;BME280;29067;35.492;-97.520;2023-10-08T02:29:45;98047.93;;;12.31;38.54
43480;BME280;29067;35.492;-97.520;2023-10-08T02:32:13;98043.63;;;13.72;36.46
43480;BME280;29067;35.492;-97.520;2023-10-08T02:34:41;98042.33;;;13.49;36.60
43480;BME280;29067;35.492;-97.520;2023-10-08T02:37:10;98046.14;;;12.74;36.92
43480;BME280;29067;35.492;-97.520;2023-10-08T02:39:38;98048.67;;;12.27;38.21
43480;BME280;29067;35.492;-97.520;2023-10-08T02:42:06;98046.76;;;11.58;38.00
43480;BME280;29067;35.492;-97.520;2023-10-08T02:44:33;98047.27;;;12.60;37.67
43480;BME280;29067;35.492;-97.520;2023-10-08T02:47:01;98051.16;;;13.50;38.55
43480;BME280;29067;35.492;-97.520;2023-10-08T02:49:30;98049.29;;;12.10;37.23
43480;BME280;29067;35.492;-97.520;2023-10-08T02:51:57;98047.52;;;12.52;37.16
43480;BME280;29067;35.492;-97.520;2023-10-08T02:54:25;98047.13;;;12.87;37.29
43480;BME280;29067;35.492;-97.520;2023-10-08T02:56:54;98046.87;;;14.00;36.07
43480;BME280;29067;35.492;-97.520;2023-10-08T02:59:22;98043.20;;;13.95;36.12
43480;BME280;29067;35.492;-97.520;2023-10-08T03:01:50;98040.05;;;12.98;37.40
43480;BME280;29067;35.492;-97.520;2023-10-08T03:04:18;98039.82;;;13.04;37.00
43480;BME280;29067;35.492;-97.520;2023-10-08T03:06:46;98034.54;;;12.39;38.12
43480;BME280;29067;35.492;-97.520;2023-10-08T03:09:14;98036.15;;;12.60;37.85
43480;BME280;29067;35.492;-97.520;2023-10-08T03:11:42;98038.52;;;13.70;35.86
43480;BME280;29067;35.492;-97.520;2023-10-08T03:14:10;98035.04;;;13.62;35.38
43480;BME280;29067;35.492;-97.520;2023-10-08T03:16:38;98039.12;;;13.40;37.15
43480;BME280;29067;35.492;-97.520;2023-10-08T03:19:06;98035.86;;;12.80;37.40
43480;BME280;29067;35.492;-97.520;2023-10-08T03:21:33;98038.35;;;12.08;38.96
43480;BME280;29067;35.492;-97.520;2023-10-08T03:24:01;98036.94;;;11.99;38.50
43480;BME280;29067;35.492;-97.520;2023-10-08T03:26:29;98036.19;;;11.44;39.51
43480;BME280;29067;35.492;-97.520;2023-10-08T03:28:57;98038.11;;;10.94;40.90
43480;BME280;29067;35.492;-97.520;2023-10-08T03:31:25;98036.24;;;12.27;39.33
43480;BME280;29067;35.492;-97.520;2023-10-08T03:33:53;98037.46;;;12.36;38.40
43480;BME280;29067;35.492;-97.520;2023-10-08T03:36:20;98035.96;;;12.94;38.04
43480;BME280;29067;35.492;-97.520;2023-10-08T03:38:48;98038.60;;;13.24;37.65
43480;BME280;29067;35.492;-97.520;2023-10-08T03:41:17;98033.21;;;12.26;38.05
43480;BME280;29067;35.492;-97.520;2023-10-08T03:43:45;98031.08;;;12.57;38.29
43480;BME280;29067;35.492;-97.520;2023-10-08T03:46:14;98029.43;;;13.00;38.13
43480;BME280;29067;35.492;-97.520;2023-10-08T03:48:42;98031.74;;;13.44;37.85
43480;BME280;29067;35.492;-97.520;2023-10-08T03:51:10;98025.55;;;12.56;38.09
43480;BME280;29067;35.492;-97.520;2023-10-08T03:53:38;98020.70;;;12.49;38.97
43480;BME280;29067;35.492;-97.520;2023-10-08T03:56:06;98020.79;;;11.65;39.61
43480;BME280;29067;35.492;-97.520;2023-10-08T03:58:34;98018.03;;;11.54;40.22
43480;BME280;29067;35.492;-97.520;2023-10-08T04:01:02;98022.01;;;10.80;40.81
43480;BME280;29067;35.492;-97.520;2023-10-08T04:03:29;98022.87;;;11.27;41.46
43480;BME280;29067;35.492;-97.520;2023-10-08T04:05:57;98020.79;;;11.48;39.99
43480;BME280;29067;35.492;-97.520;2023-10-08T04:08:25;98016.62;;;12.33;39.07
43480;BME280;29067;35.492;-97.520;2023-10-08T04:10:53;98025.65;;;10.90;41.49
43480;BME280;29067;35.492;-97.520;2023-10-08T04:13:21;98029.88;;;9.34;45.31
43480;BME280;29067;35.492;-97.520;2023-10-08T04:15:50;98024.65;;;8.59;47.18
43480;BME280;29067;35.492;-97.520;2023-10-08T04:18:17;98015.60;;;10.60;44.85
43480;BME280;29067;35.492;-97.520;2023-10-08T04:20:45;98005.47;;;11.71;43.70
43480;BME280;29067;35.492;-97.520;2023-10-08T04:23:13;98007.11;;;11.54;42.91
43480;BME280;29067;35.492;-97.520;2023-10-08T04:25:41;98004.71;;;12.13;41.91
43480;BME280;29067;35.492;-97.520;2023-10-08T04:28:09;98002.60;;;11.61;42.15
43480;BME280;29067;35.492;-97.520;2023-10-08T04:30:36;98004.36;;;10.61;44.32
43480;BME280;29067;35.492;-97.520;2023-10-08T04:33:05;98003.34;;;11.16;44.54
43480;BME280;29067;35.492;-97.520;2023-10-08T04:35:34;97998.09;;;12.54;41.75
43480;BME280;29067;35.492;-97.520;2023-10-08T04:38:03;97993.05;;;11.89;41.67
43480;BME280;29067;35.492;-97.520;2023-10-08T04:40:31;97993.89;;;12.10;40.89
43480;BME280;29067;35.492;-97.520;2023-10-08T04:42:59;97994.91;;;11.84;41.29
43480;BME280;29067;35.492;-97.520;2023-10-08T04:45:27;97990.87;;;12.13;40.93
43480;BME280;29067;35.492;-97.520;2023-10-08T04:47:55;97989.79;;;11.03;42.39
43480;BME280;29067;35.492;-97.520;2023-10-08T04:50:23;97987.21;;;11.18;42.41
43480;BME280;29067;35.492;-97.520;2023-10-08T04:52:50;97979.25;;;12.09;41.95
43480;BME280;29067;35.492;-97.520;2023-10-08T04:55:18;97976.14;;;11.14;41.70
43480;BME280;29067;35.492;-97.520;2023-10-08T04:57:46;97977.59;;;10.80;43.92
43480;BME280;29067;35.492;-97.520;2023-10-08T05:00:14;97975.68;;;9.04;46.44
43480;BME280;29067;35.492;-97.520;2023-10-08T05:02:43;97963.31;;;10.80;44.27
43480;BME280;29067;35.492;-97.520;2023-10-08T05:05:10;97957.68;;;9.16;46.54
43480;BME280;29067;35.492;-97.520;2023-10-08T05:07:38;97948.59;;;10.65;45.23
43480;BME280;29067;35.492;-97.520;2023-10-08T05:10:08;97947.68;;;11.02;44.02
43480;BME280;29067;35.492;-97.520;2023-10-08T05:12:36;97951.44;;;9.93;46.64
43480;BME280;29067;35.492;-97.520;2023-10-08T05:15:05;97946.82;;;11.57;43.68
43480;BME280;29067;35.492;-97.520;2023-10-08T05:17:33;97949.31;;;10.59;44.45
43480;BME280;29067;35.492;-97.520;2023-10-08T05:20:01;97943.58;;;11.24;44.49
43480;BME280;29067;35.492;-97.520;2023-10-08T05:22:29;97939.05;;;11.03;42.74
43480;BME280;29067;35.492;-97.520;2023-10-08T05:24:58;97934.59;;;10.54;42.82
43480;BME280;29067;35.492;-97.520;2023-10-08T05:27:25;97929.81;;;11.27;41.34
43480;BME280;29067;35.492;-97.520;2023-10-08T05:29:53;97930.19;;;10.33;43.00
43480;BME280;29067;35.492;-97.520;2023-10-08T05:32:21;97926.31;;;10.73;43.66
43480;BME280;29067;35.492;-97.520;2023-10-08T05:34:50;97923.87;;;12.50;41.04
43480;BME280;29067;35.492;-97.520;2023-10-08T05:37:18;97921.82;;;10.97;43.09
43480;BME280;29067;35.492;-97.520;2023-10-08T05:39:46;97920.14;;;11.30;43.80
43480;BME280;29067;35.492;-97.520;2023-10-08T05:42:13;97919.89;;;10.51;44.69
43480;BME280;29067;35.492;-97.520;2023-10-08T05:44:43;97913.28;;;10.42;44.63
43480;BME280;29067;35.492;-97.520;2023-10-08T05:47:13;97916.28;;;9.34;45.92
43480;BME280;29067;35.492;-97.520;2023-10-08T05:49:40;97913.60;;;9.35;45.42
43480;BME280;29067;35.492;-97.520;2023-10-08T05:52:08;97914.76;;;8.58;45.90
43480;BME280;29067;35.492;-97.520;2023-10-08T05:54:36;97907.55;;;11.11;44.36
43480;BME280;29067;35.492;-97.520;2023-10-08T05:57:06;97906.83;;;10.06;43.74
43480;BME280;29067;35.492;-97.520;2023-10-08T05:59:35;97903.57;;;9.46;44.52
43480;BME280;29067;35.492;-97.520;2023-10-08T06:02:03;97900.17;;;9.93;43.94
43480;BME280;29067;35.492;-97.520;2023-10-08T06:04:31;97896.22;;;10.64;42.23
43480;BME280;29067;35.492;-97.520;2023-10-08T06:06:59;97895.97;;;10.08;42.78
43480;BME280;29067;35.492;-97.520;2023-10-08T06:09:27;97891.12;;;11.10;42.33
43480;BME280;29067;35.492;-97.520;2023-10-08T06:11:54;97889.80;;;9.22;43.96
43480;BME280;29067;35.492;-97.520;2023-10-08T06:14:22;97885.91;;;10.34;42.40
43480;BME280;29067;35.492;-97.520;2023-10-08T06:16:53;97886.31;;;10.23;41.53
43480;BME280;29067;35.492;-97.520;2023-10-08T06:19:21;97885.07;;;9.12;43.24
43480;BME280;29067;35.492;-97.520;2023-10-08T06:21:49;97882.65;;;9.62;41.88
43480;BME280;29067;35.492;-97.520;2023-10-08T06:24:17;97876.30;;;10.13;41.70
43480;BME280;29067;35.492;-97.520;2023-10-08T06:26:45;97875.98;;;9.81;42.40
43480;BME280;29067;35.492;-97.520;2023-10-08T06:29:13;97873.56;;;10.47;41.82
43480;BME280;29067;35.492;-97.520;2023-10-08T06:31:42;97877.55;;;11.07;40.54
43480;BME280;29067;35.492;-97.520;2023-10-08T06:34:09;97876.56;;;10.82;40.63
43480;BME280;29067;35.492;-97.520;2023-10-08T06:36:37;97874.08;;;11.08;40.89
43480;BME280;29067;35.492;-97.520;2023-10-08T06:39:05;97875.60;;;10.35;41.25
43480;BME280;29067;35.492;-97.520;2023-10-08T06:41:33;97878.60;;;10.98;40.52
43480;BME280;29067;35.492;-97.520;2023-10-08T06:44:01;97878.45;;;10.51;40.24
43480;BME280;29067;35.492;-97.520;2023-10-08T06:46:29;97875.23;;;10.31;40.27
43480;BME280;29067;35.492;-97.520;2023-10-08T06:48:57;97871.02;;;10.05;40.92
43480;BME280;29067;35.492;-97.520;2023-10-08T06:51:25;97871.91;;;9.03;42.33
43480;BME280;29067;35.492;-97.520;2023-10-08T06:53:53;97869.71;;;9.14;42.94
43480;BME280;29067;35.492;-97.520;2023-10-08T06:56:21;97868.17;;;9.29;42.22
43480;BME280;29067;35.492;-97.520;2023-10-08T06:58:49;97868.84;;;9.95;40.52
43480;BME280;29067;35.492;-97.520;2023-10-08T07:01:17;97865.98;;;10.12;40.54
43480;BME280;29067;35.492;-97.520;2023-10-08T07:03:45;97865.85;;;10.83;39.88
43480;BME280;29067;35.492;-97.520;2023-10-08T07:06:13;97865.45;;;10.75;39.56
43480;BME280;29067;35.492;-97.520;2023-10-08T07:08:40;97869.15;;;11.29;39.45
43480;BME280;29067;35.492;-97.520;2023-10-08T07:11:08;97872.06;;;10.08;40.41
43480;BME280;29067;35.492;-97.520;2023-10-08T07:13:36;97873.67;;;9.47;41.32
43480;BME280;29067;35.492;-97.520;2023-10-08T07:16:04;97871.24;;;8.58;42.80
43480;BME280;29067;35.492;-97.520;2023-10-08T07:18:33;97865.50;;;9.09;42.82
43480;BME280;29067;35.492;-97.520;2023-10-08T07:21:01;97865.70;;;9.39;42.04
43480;BME280;29067;35.492;-97.520;2023-10-08T07:23:31;97868.88;;;9.42;42.05
43480;BME280;29067;35.492;-97.520;2023-10-08T07:26:00;97868.00;;;9.84;41.11
43480;BME280;29067;35.492;-97.520;2023-10-08T07:28:28;97864.31;;;9.52;41.48
43480;BME280;29067;35.492;-97.520;2023-10-08T07:30:56;97865.90;;;10.49;40.85
43480;BME280;29067;35.492;-97.520;2023-10-08T07:33:24;97862.95;;;10.21;40.37
43480;BME280;29067;35.492;-97.520;2023-10-08T07:35:52;97860.29;;;10.11;40.57
43480;BME280;29067;35.492;-97.520;2023-10-08T07:38:20;97856.21;;;9.30;40.71
43480;BME280;29067;35.492;-97.520;2023-10-08T07:40:48;97851.01;;;10.43;39.64
43480;BME280;29067;35.492;-97.520;2023-10-08T07:43:16;97852.90;;;9.57;39.97
43480;BME280;29067;35.492;-97.520;2023-10-08T07:45:44;97847.73;;;11.24;38.27
43480;BME280;29067;35.492;-97.520;2023-10-08T07:48:13;97844.87;;;10.18;38.71
43480;BME280;29067;35.492;-97.520;2023-10-08T07:50:43;97844.25;;;9.66;39.25
43480;BME280;29067;35.492;-97.520;2023-10-08T07:53:12;97838.16;;;10.37;39.26
43480;BME280;29067;35.492;-97.520;2023-10-08T07:55:40;97839.94;;;9.54;39.07
43480;BME280;29067;35.492;-97.520;2023-10-08T07:58:08;97837.79;;;9.45;39.54
43480;BME280;29067;35.492;-97.520;2023-10-08T08:00:36;97836.57;;;9.06;39.96
43480;BME280;29067;35.492;-97.520;2023-10-08T08:03:04;97834.39;;;9.72;40.28
43480;BME280;29067;35.492;-97.520;2023-10-08T08:05:32;97830.74;;;10.05;39.39
43480;BME280;29067;35.492;-97.520;2023-10-08T08:08:00;97825.18;;;10.10;38.86
43480;BME280;29067;35.492;-97.520;2023-10-08T08:10:29;97822.82;;;10.74;38.27
43480;BME280;29067;35.492;-97.520;2023-10-08T08:12:57;97825.80;;;10.00;38.68
43480;BME280;29067;35.492;-97.520;2023-10-08T08:15:25;97821.10;;;10.23;38.28
43480;BME280;29067;35.492;-97.520;2023-10-08T08:17:53;97823.36;;;11.29;36.68
43480;BME280;29067;35.492;-97.520;2023-10-08T08:20:21;97819.67;;;10.56;37.38
43480;BME280;29067;35.492;-97.520;2023-10-08T08:22:48;97816.84;;;11.22;36.55
43480;BME280;29067;35.492;-97.520;2023-10-08T08:25:17;97813.62;;;10.96;37.27
43480;BME280;29067;35.492;-97.520;2023-10-08T08:27:45;97807.93;;;10.39;37.62
43480;BME280;29067;35.492;-97.520;2023-10-08T08:30:13;97809.28;;;11.17;35.94
43480;BME280;29067;35.492;-97.520;2023-10-08T08:32:42;97811.17;;;11.63;35.48
43480;BME280;29067;35.492;-97.520;2023-10-08T08:35:11;97809.69;;;11.58;36.54
43480;BME280;29067;35.492;-97.520;2023-10-08T08:37:40;97807.88;;;11.60;33.86
43480;BME280;29067;35.492;-97.520;2023-10-08T08:40:09;97810.10;;;11.30;34.77
43480;BME280;29067;35.492;-97.520;2023-10-08T08:42:37;97808.94;;;11.63;34.03
43480;BME280;29067;35.492;-97.520;2023-10-08T08:45:10;97806.52;;;10.83;35.35
43480;BME280;29067;35.492;-97.520;2023-10-08T08:47:40;97801.47;;;10.98;34.55
43480;BME280;29067;35.492;-97.520;2023-10-08T08:50:09;97800.13;;;11.67;34.40
43480;BME280;29067;35.492;-97.520;2023-10-08T08:52:38;97800.40;;;11.66;34.10
43480;BME280;29067;35.492;-97.520;2023-10-08T08:55:07;97801.68;;;11.53;34.57
43480;BME280;29067;35.492;-97.520;2023-10-08T08:57:35;97795.69;;;11.22;34.07
43480;BME280;29067;35.492;-97.520;2023-10-08T09:00:05;97794.03;;;11.11;34.83
43480;BME280;29067;35.492;-97.520;2023-10-08T09:02:34;97792.19;;;11.49;35.46
43480;BME280;29067;35.492;-97.520;2023-10-08T09:05:02;97792.70;;;11.83;35.71
43480;BME280;29067;35.492;-97.520;2023-10-08T09:07:30;97790.24;;;12.43;34.05
43480;BME280;29067;35.492;-97.520;2023-10-08T09:09:58;97792.97;;;10.70;35.29
43480;BME280;29067;35.492;-97.520;2023-10-08T09:12:27;97788.04;;;10.87;36.29
43480;BME280;29067;35.492;-97.520;2023-10-08T09:15:01;97789.87;;;11.05;35.98
43480;BME280;29067;35.492;-97.520;2023-10-08T09:17:29;97786.29;;;12.32;35.21
43480;BME280;29067;35.492;-97.520;2023-10-08T09:19:56;97784.26;;;11.83;34.61
43480;BME280;29067;35.492;-97.520;2023-10-08T09:22:25;97787.87;;;11.60;36.37
43480;BME280;29067;35.492;-97.520;2023-10-08T09:24:54;97783.60;;;11.07;36.61
43480;BME280;29067;35.492;-97.520;2023-10-08T09:27:22;97776.90;;;9.86;36.97
43480;BME280;29067;35.492;-97.520;2023-10-08T09:29:55;97779.24;;;9.25;38.40
43480;BME280;29067;35.492;-97.520;2023-10-08T09:32:23;97774.77;;;10.17;37.14
43480;BME280;29067;35.492;-97.520;2023-10-08T09:34:52;97772.55;;;10.03;38.67
43480;BME280;29067;35.492;-97.520;2023-10-08T09:37:20;97770.12;;;10.40;37.83
43480;BME280;29067;35.492;-97.520;2023-10-08T09:39:49;97769.44;;;9.87;38.18
43480;BME280;29067;35.492;-97.520;2023-10-08T09:42:19;97770.54;;;9.36;38.64
43480;BME280;29067;35.492;-97.520;2023-10-08T09:44:48;97767.09;;;9.53;38.61
43480;BME280;29067;35.492;-97.520;2023-10-08T09:47:20;97761.45;;;9.26;38.55
43480;BME280;29067;35.492;-97.520;2023-10-08T09:49:56;97758.57;;;10.35;37.63
43480;BME280;29067;35.492;-97.520;2023-10-08T09:52:29;97753.56;;;9.40;37.61
43480;BME280;29067;35.492;-97.520;2023-10-08T09:55:05;97751.98;;;9.99;37.87
43480;BME280;29067;35.492;-97.520;2023-10-08T09:57:35;97749.44;;;9.88;37.90
43480;BME280;29067;35.492;-97.520;2023-10-08T10:00:06;97748.16;;;9.53;38.45
43480;BME280;29067;35.492;-97.520;2023-10-08T10:02:36;97747.71;;;9.37;38.21
43480;BME280;29067;35.492;-97.520;2023-10-08T10:05:04;97747.98;;;8.23;39.45
43480;BME280;29067;35.492;-97.520;2023-10-08T10:07:33;97741.81;;;9.70;38.61
43480;BME280;29067;35.492;-97.520;2023-10-08T10:10:02;97738.76;;;9.97;38.25
43480;BME280;29067;35.492;-97.520;2023-10-08T10:12:36;97734.87;;;9.72;38.92
43480;BME280;29067;35.492;-97.520;2023-10-08T10:15:06;97730.62;;;8.73;39.10
43480;BME280;29067;35.492;-97.520;2023-10-08T10:17:36;97726.13;;;8.34;39.58
43480;BME280;29067;35.492;-97.520;2023-10-08T10:20:05;97720.34;;;9.40;38.31
43480;BME280;29067;35.492;-97.520;2023-10-08T10:22:35;97719.81;;;8.63;39.18
43480;BME280;29067;35.492;-97.520;2023-10-08T10:25:04;97717.71;;;9.18;38.45
43480;BME280;29067;35.492;-97.520;2023-10-08T10:27:32;97721.63;;;9.24;38.88
43480;BME280;29067;35.492;-97.520;2023-10-08T10:30:04;97722.37;;;9.23;39.86
43480;BME280;29067;35.492;-97.520;2023-10-08T10:32:32;97726.06;;;8.44;40.69
43480;BME280;29067;35.492;-97.520;2023-10-08T10:35:00;97721.68;;;9.74;39.96
43480;BME280;29067;35.492;-97.520;2023-10-08T10:37:29;97720.06;;;9.13;38.92
43480;BME280;29067;35.492;-97.520;2023-10-08T10:39:57;97718.40;;;8.52;39.32
43480;BME280;29067;35.492;-97.520;2023-10-08T10:42:25;97717.51;;;8.30;39.75
43480;BME280;29067;35.492;-97.520;2023-10-08T10:44:54;97712.35;;;9.35;39.10
43480;BME280;29067;35.492;-97.520;2023-10-08T10:47:23;97713.80;;;9.51;39.66
43480;BME280;29067;35.492;-97.520;2023-10-08T10:49:52;97710.40;;;9.08;38.90
43480;BME280;29067;35.492;-97.520;2023-10-08T10:52:21;97710.84;;;8.90;39.57
43480;BME280;29067;35.492;-97.520;2023-10-08T10:54:50;97709.64;;;8.77;39.07
43480;BME280;29067;35.492;-97.520;2023-10-08T10:57:18;97707.79;;;9.05;39.31
43480;BME280;29067;35.492;-97.520;2023-10-08T10:59:46;97707.00;;;9.98;38.02
43480;BME280;29067;35.492;-97.520;2023-10-08T11:03:02;97710.13;;;8.95;38.25
43480;BME280;29067;35.492;-97.520;2023-10-08T11:05:31;97708.92;;;9.32;38.68
43480;BME280;29067;35.492;-97.520;2023-10-08T11:08:00;97710.85;;;8.46;39.04
43480;BME280;29067;35.492;-97.520;2023-10-08T11:10:30;97705.74;;;10.28;38.06
43480;BME280;29067;35.492;-97.520;2023-10-08T11:12:59;97706.78;;;9.94;37.42
43480;BME280;29067;35.492;-97.520;2023-10-08T11:15:28;97704.47;;;9.99;37.06
43480;BME280;29067;35.492;-97.520;2023-10-08T11:17:57;97705.09;;;9.80;37.41
43480;BME280;29067;35.492;-97.520;2023-10-08T11:20:25;97703.52;;;10.27;37.47
43480;BME280;29067;35.492;-97.520;2023-10-08T11:22:54;97697.65;;;9.85;36.21
43480;BME280;29067;35.492;-97.520;2023-10-08T11:25:23;97701.53;;;9.30;37.61
43480;BME280;29067;35.492;-97.520;2023-10-08T11:27:52;97705.63;;;9.93;37.15
43480;BME280;29067;35.492;-97.520;2023-10-08T11:30:20;97703.54;;;9.83;37.05
43480;BME280;29067;35.492;-97.520;2023-10-08T11:32:48;97704.99;;;10.53;35.61
43480;BME280;29067;35.492;-97.520;2023-10-08T11:35:16;97708.17;;;9.44;37.29
43480;BME280;29067;35.492;-97.520;2023-10-08T11:37:46;97706.09;;;8.94;37.52
43480;BME280;29067;35.492;-97.520;2023-10-08T11:40:22;97703.38;;;8.19;37.72
43480;BME280;29067;35.492;-97.520;2023-10-08T11:59:05;97699.57;;;8.98;39.04
43480;BME280;29067;35.492;-97.520;2023-10-08T12:01:32;97700.00;;;5.49;39.93
43480;BME280;29067;35.492;-97.520;2023-10-08T12:04:00;97699.76;;;7.59;39.60
43480;BME280;29067;35.492;-97.520;2023-10-08T12:06:28;97700.27;;;7.67;38.77
43480;BME280;29067;35.492;-97.520;2023-10-08T12:08:56;97699.00;;;9.07;38.28
43480;BME280;29067;35.492;-97.520;2023-10-08T12:11:25;97699.72;;;8.60;38.34
43480;BME280;29067;35.492;-97.520;2023-10-08T12:13:53;97697.39;;;8.82;38.49
43480;BME280;29067;35.492;-97.520;2023-10-08T12:16:21;97699.39;;;9.26;38.23
43480;BME280;29067;35.492;-97.520;2023-10-08T12:18:49;97697.04;;;9.08;38.77
43480;BME280;29067;35.492;-97.520;2023-10-08T12:21:17;97701.82;;;8.51;38.70
43480;BME280;29067;35.492;-97.520;2023-10-08T12:23:46;97696.16;;;8.73;38.22
43480;BME280;29067;35.492;-97.520;2023-10-08T12:26:14;97694.96;;;7.49;39.48
43480;BME280;29067;35.492;-97.520;2023-10-08T12:28:42;97690.51;;;8.67;38.21
43480;BME280;29067;35.492;-97.520;2023-10-08T12:31:11;97691.02;;;7.95;39.18
43480;BME280;29067;35.492;-97.520;2023-10-08T12:33:39;97689.12;;;8.33;39.73
43480;BME280;29067;35.492;-97.520;2023-10-08T12:36:07;97691.80;;;7.50;40.31
43480;BME280;29067;35.492;-97.520;2023-10-08T12:38:35;97686.05;;;9.21;38.76
43480;BME280;29067;35.492;-97.520;2023-10-08T12:41:03;97686.90;;;8.73;39.56
43480;BME280;29067;35.492;-97.520;2023-10-08T12:43:31;97681.66;;;9.51;38.60
43480;BME280;29067;35.492;-97.520;2023-10-08T12:45:58;97681.76;;;8.54;38.97
43480;BME280;29067;35.492;-97.520;2023-10-08T12:48:27;97682.06;;;9.13;38.21
43480;BME280;29067;35.492;-97.520;2023-10-08T12:50:55;97678.96;;;9.80;37.64
43480;BME280;29067;35.492;-97.520;2023-10-08T12:53:25;97684.17;;;9.19;38.11
43480;BME280;29067;35.492;-97.520;2023-10-08T12:55:53;97684.50;;;9.28;39.17
43480;BME280;29067;35.492;-97.520;2023-10-08T12:58:22;97682.34;;;9.76;38.07
43480;BME280;29067;35.492;-97.520;2023-10-08T13:00:51;97689.20;;;9.03;38.73
43480;BME280;29067;35.492;-97.520;2023-10-08T13:03:19;97688.45;;;9.10;38.96
43480;BME280;29067;35.492;-97.520;2023-10-08T13:05:47;97683.77;;;9.77;37.55